Aeroporto :
LOGIN :

Iscrizione | Disclaimer

   EN    FR    IT 

 










Sommario :    VFR   VFR Marginale   IFR   IFR Intensivo   IFR Molto Intensivo
Visibilità : 
Base nubi : 
>= 8 km
>= 3000ft
5 / 8 km
1000 / 3000 ft
1500m / 5 km
500 / 1000 ft
800 / 1500m
200 / 500 ft
< 800m
< 200 ft
Simboli :   Temporali  Nebbia  Neve Forte  Precipitazioni Forti  Vento > 20 kt
SIGMETs :   Varie  Temporali  Ghiacco  Turbolenza  Onda orograficha  Ceneri Vulcaniche






- Altitudine del aeroporto : 157 ft
- Codice IATA : SXF


EDDB - Berlin Schönefeld

ULTIMO METAR :
  • 242320Z 23011KT 9999 -RA SCT009 BKN020 07/07 Q1000 NOSIG

METARs OBSOLETI :
  • 242250Z 23014KT 9999 -RA SCT007 BKN025 07/06 Q1000 NOSIG
  • 242220Z 22015KT 9999 -RA FEW008 BKN026 07/06 Q1000 NOSIG
  • 242150Z 21012KT 9999 -RA SCT008 BKN030 06/05 Q1001 NOSIG
  • 242120Z 20012KT 9999 -RA FEW008 BKN012 05/05 Q1001 NOSIG
  • 242050Z 20009KT 160V230 9999 -RA FEW008 BKN012 04/04 Q1003 NOSIG

TAF TAF EDDB
Valido dal 25 a 00 ore il 26 a 00 ore UTC


242300Z 2500/2524 22014KT 9999 BKN020
BECMG 2500/2502 24020G30KT
TEMPO 2500/2504 3500 -RA BKN012
BECMG 2518/2520 23012KT



MetMap, La meteo Aeronautica in un colpo d'occhio ! - Copyright ORBIFLY Dicembre 2007 - Disclaimer

ORBIFLY MET'MAP TEAM :

Programmazione e sviluppo : Alexandra Zaïnal
Concezione : Baudouin d'Aumeries
Aiuto per la programmazione : Marc-Olivier Méhu
Supporto tecnico e logistico : Manuel Goepfert
Aiuto per la traduzione : Arnaldo La Scala

Contatto : metmap@orbifly.com




FONTI E CREDITI :

   NOAA